Time;durP1;ratioP1;P1;durP2;ratioP2;P2;SDS_P1;SDS_P2;PMS_P1;PMS_P2;Temp;Humidity;BMP_temperature;BMP_pressure;BME280_temperature;BME280_humidity;BME280_pressure;Samples;Min_cycle;Max_cycle;Signal;HPM_P1;HPM_P2
2022/01/21 00:01:13;;;;;;;8.90;3.47;;;;;;;-0.17;100.00;99454.97;5071714;28;20604;-68
2022/01/21 00:03:40;;;;;;;8.57;3.60;;;;;;;-0.17;100.00;99455.84;5072946;28;20218;-68
2022/01/21 00:06:08;;;;;;;8.33;3.53;;;;;;;-0.12;100.00;99460.13;5067367;28;20222;-69
2022/01/21 00:08:36;;;;;;;8.43;3.67;;;;;;;-0.07;100.00;99458.38;5073180;28;20289;-68
2022/01/21 00:11:03;;;;;;;12.13;4.33;;;;;;;-0.06;100.00;99467.03;5073292;28;20290;-68
2022/01/21 00:13:34;;;;;;;7.23;2.57;;;;;;;-0.14;100.00;99457.56;5072781;28;20730;-68
2022/01/21 00:16:01;;;;;;;7.97;3.20;;;;;;;-0.13;100.00;99458.41;5067441;28;20261;-68
2022/01/21 00:18:28;;;;;;;6.13;3.10;;;;;;;-0.13;100.00;99459.28;5072725;28;20222;-68
2022/01/21 00:31:53;;;;;;;8.50;3.03;;;;;;;0.46;100.00;99460.56;5068801;28;20769;-68
2022/01/21 00:34:19;;;;;;;7.33;2.87;;;;;;;0.49;100.00;99461.41;5065338;28;20219;-68
2022/01/21 00:36:46;;;;;;;6.57;2.80;;;;;;;0.56;100.00;99462.22;5073086;28;20218;-68
2022/01/21 00:39:14;;;;;;;4.80;2.97;;;;;;;0.57;100.00;99454.38;5070105;28;20211;-68
2022/01/21 00:41:51;;;;;;;6.77;2.93;;;;;;;0.57;100.00;99470.00;5072997;28;20247;-68
2022/01/21 00:44:18;;;;;;;10.20;3.83;;;;;;;0.66;100.00;99456.06;5066223;28;20294;-68
2022/01/21 00:46:44;;;;;;;6.90;2.93;;;;;;;0.69;100.00;99459.47;5072720;28;20214;-68
2022/01/21 00:49:11;;;;;;;6.60;2.80;;;;;;;0.72;100.00;99475.09;5072446;28;20215;-68
2022/01/21 00:51:37;;;;;;;6.50;3.30;;;;;;;0.70;100.00;99479.44;5071347;28;20628;-68
2022/01/21 00:54:04;;;;;;;11.73;3.33;;;;;;;0.71;100.00;99478.56;5072600;28;20215;-69
2022/01/21 00:56:32;;;;;;;7.93;3.30;;;;;;;0.74;100.00;99472.47;5072721;28;20218;-68
2022/01/21 00:58:58;;;;;;;6.73;3.60;;;;;;;0.75;100.00;99467.22;5072790;28;20214;-68
2022/01/21 01:01:25;;;;;;;8.10;3.17;;;;;;;0.72;100.00;99475.09;5072426;28;20219;-68
2022/01/21 01:03:51;;;;;;;7.60;3.13;;;;;;;0.71;100.00;99480.28;5072360;28;20211;-68
2022/01/21 01:06:18;;;;;;;7.67;3.10;;;;;;;0.77;100.00;99475.91;5072688;28;20214;-68
2022/01/21 01:08:44;;;;;;;7.63;3.37;;;;;;;0.72;100.00;99475.09;5072689;28;20587;-68
2022/01/21 01:11:28;;;;;;;5.47;3.23;;;;;;;0.75;100.00;99484.59;5072598;28;20215;-68
2022/01/21 01:22:09;;;;;;;6.00;2.70;;;;;;;0.82;100.00;99505.38;5072100;28;20219;-69
2022/01/21 01:27:41;;;;;;;4.17;2.70;;;;;;;0.85;100.00;99505.31;5072233;28;20222;-68
2022/01/21 01:30:13;;;;;;;6.77;2.80;;;;;;;0.88;100.00;99513.13;5076329;28;20265;-68
2022/01/21 01:32:41;;;;;;;5.77;2.83;;;;;;;0.85;100.00;99515.72;5070557;28;20247;-69
2022/01/21 01:35:09;;;;;;;4.63;2.90;;;;;;;0.87;100.00;99513.97;5075927;28;20248;-69
2022/01/21 01:37:52;;;;;;;9.03;2.97;;;;;;;0.92;100.00;99512.19;5076007;28;20306;-68
2022/01/21 01:40:23;;;;;;;5.47;2.50;;;;;;;0.85;100.00;99500.13;5074205;28;20225;-68
2022/01/21 01:43:08;;;;;;;5.17;3.17;;;;;;;0.83;100.00;99504.47;5075608;28;20229;-68
2022/01/21 01:51:16;;;;;;;5.97;2.90;;;;;;;0.91;100.00;99496.56;5070037;28;20305;-68
2022/01/21 01:53:45;;;;;;;6.27;3.27;;;;;;;0.91;100.00;99492.25;5075367;28;20239;-68
2022/01/21 01:56:14;;;;;;;6.77;3.27;;;;;;;1.00;100.00;99497.34;5075693;28;20212;-69
2022/01/21 01:58:42;;;;;;;10.50;3.40;;;;;;;0.94;100.00;99497.44;5075294;28;21092;-69
2022/01/21 02:01:11;;;;;;;8.80;3.30;;;;;;;0.98;100.00;99493.91;5075345;28;20217;-68
2022/01/21 02:03:37;;;;;;;9.07;3.23;;;;;;;0.93;100.00;99490.47;5075552;28;20207;-68
2022/01/21 02:06:05;;;;;;;6.87;3.00;;;;;;;0.93;100.00;99485.28;5071132;28;20223;-68
2022/01/21 02:08:32;;;;;;;13.37;3.10;;;;;;;0.98;100.00;99491.31;5075327;28;20219;-68
2022/01/21 02:10:59;;;;;;;8.50;3.03;;;;;;;0.83;100.00;99483.66;5073706;28;20234;-68
2022/01/21 02:13:28;;;;;;;7.23;2.80;;;;;;;0.87;100.00;99482.72;5075385;28;20231;-68
2022/01/21 02:16:07;;;;;;;8.37;3.53;;;;;;;0.82;100.00;99476.75;5070122;28;20389;-68
2022/01/21 02:21:30;;;;;;;8.13;2.70;;;;;;;0.72;100.00;99469.00;5074955;28;20589;-68
2022/01/21 02:23:57;;;;;;;6.50;3.37;;;;;;;0.66;100.00;99466.47;5075126;28;20298;-69
2022/01/21 02:26:24;;;;;;;7.47;3.17;;;;;;;0.53;100.00;99475.25;5075099;28;20220;-68
2022/01/21 02:28:52;;;;;;;8.90;3.10;;;;;;;0.46;100.00;99474.44;5075040;28;20226;-68
2022/01/21 02:31:19;;;;;;;8.27;3.30;;;;;;;0.31;100.00;99479.75;5072058;28;20702;-68
2022/01/21 02:33:45;;;;;;;6.03;3.17;;;;;;;0.23;100.00;99489.34;5074962;28;20258;-68
2022/01/21 02:36:12;;;;;;;7.77;3.37;;;;;;;0.12;100.00;99491.16;5074938;28;20584;-68
2022/01/21 02:38:39;;;;;;;9.67;3.00;;;;;;;0.04;100.00;99489.47;5073093;28;20242;-68
2022/01/21 02:41:06;;;;;;;4.97;3.20;;;;;;;0.02;100.00;99489.47;5074678;28;20226;-68
2022/01/21 02:43:32;;;;;;;5.30;3.27;;;;;;;-0.01;100.00;99494.72;5074614;28;20219;-69
2022/01/21 02:46:04;;;;;;;7.47;3.30;;;;;;;-0.03;100.00;99496.47;5074795;28;20222;-68
2022/01/21 02:48:34;;;;;;;7.63;3.13;;;;;;;0.03;100.00;99505.94;5074677;28;20224;-69
2022/01/21 02:51:01;;;;;;;8.70;3.23;;;;;;;0.10;100.00;99513.72;5072635;28;20272;-68
2022/01/21 02:53:39;;;;;;;6.80;2.70;;;;;;;0.34;100.00;99523.94;5074429;28;20242;-69
2022/01/21 02:56:09;;;;;;;5.10;3.07;;;;;;;0.50;100.00;99509.09;5068192;28;20249;-68
2022/01/21 02:58:36;;;;;;;5.33;2.87;;;;;;;0.63;100.00;99508.13;5074110;28;20762;-68
2022/01/21 03:01:03;;;;;;;9.97;3.30;;;;;;;0.60;100.00;99511.59;5074428;28;20223;-68
2022/01/21 03:03:29;;;;;;;5.20;3.20;;;;;;;0.63;100.00;99501.16;5072702;28;20587;-69
2022/01/21 03:05:56;;;;;;;5.53;2.63;;;;;;;0.66;100.00;99506.34;5074262;28;20219;-68
2022/01/21 03:08:23;;;;;;;6.97;2.67;;;;;;;0.71;100.00;99515.00;5073924;28;20216;-68
2022/01/21 03:10:50;;;;;;;5.57;2.73;;;;;;;0.77;100.00;99514.94;5074423;28;20222;-68
2022/01/21 03:13:21;;;;;;;7.17;2.77;;;;;;;0.70;100.00;99518.47;5074085;28;20243;-68
2022/01/21 03:15:48;;;;;;;5.33;2.67;;;;;;;0.71;100.00;99522.81;5074296;28;20269;-69
2022/01/21 03:18:16;;;;;;;7.37;3.20;;;;;;;0.70;100.00;99517.59;5074278;28;20217;-68
2022/01/21 03:20:44;;;;;;;8.90;3.03;;;;;;;0.73;100.00;99523.63;5073992;28;20291;-69
2022/01/21 03:23:15;;;;;;;10.47;3.27;;;;;;;0.71;100.00;99520.19;5073620;28;20211;-69
2022/01/21 03:25:44;;;;;;;8.67;2.70;;;;;;;0.49;100.00;99516.03;5074003;28;20238;-68
2022/01/21 03:28:10;;;;;;;6.00;2.90;;;;;;;0.23;100.00;99515.34;5073880;28;20216;-68
2022/01/21 03:30:39;;;;;;;7.93;3.50;;;;;;;0.09;100.00;99505.91;5072118;28;20221;-68
2022/01/21 03:33:06;;;;;;;7.73;3.03;;;;;;;-0.04;100.00;99512.91;5073635;28;20243;-68
2022/01/21 03:35:33;;;;;;;9.63;2.67;;;;;;;-0.08;100.00;99517.28;5073539;28;20229;-68
2022/01/21 03:38:00;;;;;;;8.60;3.17;;;;;;;-0.04;100.00;99507.69;5073665;28;20219;-69
2022/01/21 03:40:27;;;;;;;9.03;3.07;;;;;;;-0.11;100.00;99516.41;5067851;28;20214;-68
2022/01/21 03:42:53;;;;;;;6.43;3.00;;;;;;;-0.08;100.00;99523.31;5073330;28;20222;-68
2022/01/21 03:45:20;;;;;;;9.00;3.37;;;;;;;0.01;100.00;99524.16;5073620;28;20211;-68
2022/01/21 03:47:47;;;;;;;10.47;3.43;;;;;;;0.17;100.00;99531.00;5073371;28;20214;-69
2022/01/21 03:50:23;;;;;;;7.07;3.27;;;;;;;0.17;100.00;99536.19;5073413;28;20222;-68
2022/01/21 03:52:51;;;;;;;6.80;3.40;;;;;;;0.18;100.00;99535.31;5072741;28;20772;-68
2022/01/21 03:55:17;;;;;;;11.27;3.80;;;;;;;0.17;100.00;99528.41;5072110;28;20212;-68
2022/01/21 03:57:44;;;;;;;6.83;3.17;;;;;;;0.17;100.00;99525.78;5072827;28;20221;-68
2022/01/21 04:00:14;;;;;;;6.57;3.40;;;;;;;0.15;100.00;99524.94;5073304;28;20211;-68
2022/01/21 04:02:41;;;;;;;10.97;3.57;;;;;;;0.06;100.00;99527.59;5073267;28;20219;-68
2022/01/21 04:05:10;;;;;;;7.27;3.40;;;;;;;0.02;100.00;99523.25;5072944;28;20223;-68
2022/01/21 04:07:36;;;;;;;6.00;3.77;;;;;;;-0.05;100.00;99521.56;5072994;28;20215;-68
2022/01/21 04:10:04;;;;;;;6.73;3.80;;;;;;;-0.02;100.00;99521.56;5073261;28;20208;-68
2022/01/21 04:12:30;;;;;;;10.13;3.63;;;;;;;-0.04;100.00;99525.91;5072860;28;20238;-68
2022/01/21 04:14:58;;;;;;;10.17;4.07;;;;;;;-0.06;100.00;99522.44;5072800;28;20223;-68
2022/01/21 04:17:25;;;;;;;6.17;3.23;;;;;;;0.02;100.00;99531.06;5073101;28;20215;-68
2022/01/21 04:19:51;;;;;;;6.33;3.20;;;;;;;-0.02;100.00;99531.09;5072875;28;20214;-68
2022/01/21 04:22:19;;;;;;;10.17;3.63;;;;;;;-0.08;100.00;99540.69;5071435;28;20217;-68
2022/01/21 04:24:47;;;;;;;8.40;3.23;;;;;;;-0.08;100.00;99539.78;5072682;28;20234;-68
2022/01/21 04:27:14;;;;;;;11.70;3.17;;;;;;;-0.16;100.00;99544.16;5072869;28;20272;-69
2022/01/21 04:29:41;;;;;;;15.17;3.73;;;;;;;-0.19;100.00;99545.91;5072745;28;20673;-68
2022/01/21 04:32:09;;;;;;;6.07;3.23;;;;;;;-0.25;100.00;99552.88;5072857;28;20219;-68
2022/01/21 04:34:36;;;;;;;8.37;4.20;;;;;;;-0.31;100.00;99552.91;5072803;28;20608;-69
2022/01/21 04:37:05;;;;;;;6.20;3.50;;;;;;;-0.30;100.00;99565.88;5072876;28;20255;-69
2022/01/21 04:39:39;;;;;;;7.93;3.37;;;;;;;-0.22;100.00;99562.34;5072772;28;20233;-69
2022/01/21 04:47:39;;;;;;;10.53;4.53;;;;;;;-0.54;100.00;99565.97;5068714;28;20297;-68
2022/01/21 04:50:11;;;;;;;8.53;3.63;;;;;;;-0.47;100.00;99574.56;5071807;28;20217;-68
2022/01/21 04:52:37;;;;;;;8.57;3.93;;;;;;;-0.35;100.00;99567.63;5072734;28;20215;-68
2022/01/21 04:55:06;;;;;;;7.13;3.57;;;;;;;-0.37;100.00;99581.50;5068889;28;20214;-68
2022/01/21 04:57:33;;;;;;;9.57;3.60;;;;;;;-0.28;100.00;99565.84;5072397;28;20227;-68
2022/01/21 05:00:00;;;;;;;10.60;3.97;;;;;;;-0.27;100.00;99573.66;5072354;28;20301;-68
2022/01/21 05:02:28;;;;;;;7.27;3.60;;;;;;;-0.25;100.00;99573.66;5073707;28;20214;-68
2022/01/21 05:04:54;;;;;;;7.40;3.37;;;;;;;-0.17;100.00;99574.47;5076224;28;20212;-68
2022/01/21 05:07:24;;;;;;;6.90;3.67;;;;;;;-0.05;100.00;99576.16;5076364;28;20219;-68
2022/01/21 05:09:51;;;;;;;7.67;3.40;;;;;;;-0.02;100.00;99570.94;5076467;28;20635;-68
2022/01/21 05:12:21;;;;;;;4.80;3.63;;;;;;;0.06;100.00;99582.16;5076155;28;20673;-68
2022/01/21 05:15:03;;;;;;;10.57;4.13;;;;;;;0.12;100.00;99578.66;5074674;28;20596;-68
2022/01/21 05:17:30;;;;;;;9.27;3.97;;;;;;;0.20;100.00;99588.16;5076358;28;20250;-68
2022/01/21 05:19:57;;;;;;;6.60;3.63;;;;;;;0.12;100.00;99589.06;5076332;28;20272;-68
2022/01/21 05:22:23;;;;;;;9.57;3.60;;;;;;;0.19;100.00;99595.97;5076200;28;20219;-68
2022/01/21 05:24:50;;;;;;;9.23;3.87;;;;;;;0.15;100.00;99592.53;5075800;28;20239;-68
2022/01/21 05:27:18;;;;;;;9.63;3.60;;;;;;;0.20;100.00;99597.72;5076296;28;20215;-68
2022/01/21 05:29:45;;;;;;;10.30;3.60;;;;;;;0.21;100.00;99600.31;5076223;28;20215;-68
2022/01/21 05:32:12;;;;;;;10.67;3.40;;;;;;;0.28;100.00;99603.72;5076110;28;20215;-68
2022/01/21 05:34:38;;;;;;;8.00;3.63;;;;;;;0.23;100.00;99611.56;5075978;28;20601;-68
2022/01/21 05:37:05;;;;;;;7.90;4.00;;;;;;;0.27;100.00;99608.06;5075938;28;20215;-68
2022/01/21 05:39:31;;;;;;;7.50;3.77;;;;;;;0.22;100.00;99604.63;5075660;28;20696;-68
2022/01/21 05:41:58;;;;;;;6.50;3.70;;;;;;;0.22;100.00;99595.94;5074317;28;20578;-68
2022/01/21 05:47:10;;;;;;;8.17;4.23;;;;;;;0.24;100.00;99605.47;5068983;28;20297;-68
2022/01/21 05:49:38;;;;;;;9.27;3.60;;;;;;;0.33;100.00;99595.00;5075789;28;20214;-68
2022/01/21 05:52:08;;;;;;;11.47;4.20;;;;;;;0.29;100.00;99588.13;5075721;28;20254;-69
2022/01/21 05:54:35;;;;;;;8.93;4.00;;;;;;;0.30;100.00;99584.63;5075619;28;20239;-69
2022/01/21 05:57:06;;;;;;;6.37;3.53;;;;;;;0.35;100.00;99580.28;5075705;28;20215;-69
2022/01/21 05:59:34;;;;;;;10.87;3.93;;;;;;;0.37;100.00;99581.13;5075595;28;20247;-69
2022/01/21 06:02:00;;;;;;;6.67;3.63;;;;;;;0.39;100.00;99584.56;5075275;28;20702;-69
2022/01/21 06:04:27;;;;;;;9.57;3.93;;;;;;;0.30;100.00;99592.44;5075566;28;20219;-69
2022/01/21 06:06:53;;;;;;;7.00;3.73;;;;;;;0.45;100.00;99602.75;5073683;28;20231;-69
2022/01/21 06:09:20;;;;;;;6.43;3.77;;;;;;;0.63;100.00;99622.59;5073599;28;20219;-68
2022/01/21 06:11:46;;;;;;;6.27;3.70;;;;;;;0.69;100.00;99636.41;5075335;28;20322;-68
2022/01/21 06:14:13;;;;;;;6.13;3.60;;;;;;;0.62;100.00;99634.72;5074578;28;20246;-69
2022/01/21 06:16:40;;;;;;;8.43;3.77;;;;;;;0.56;100.00;99634.75;5075275;28;20211;-68
2022/01/21 06:19:07;;;;;;;7.43;3.63;;;;;;;0.56;100.00;99644.31;5075179;28;20219;-69
2022/01/21 06:21:33;;;;;;;10.50;3.80;;;;;;;0.48;100.00;99641.75;5075275;28;20211;-69
2022/01/21 06:24:00;;;;;;;9.37;4.07;;;;;;;0.50;100.00;99645.19;5074806;28;20212;-68
2022/01/21 06:26:26;;;;;;;6.57;3.90;;;;;;;0.43;100.00;99642.66;5075287;28;20226;-68
2022/01/21 06:28:53;;;;;;;7.73;3.83;;;;;;;0.37;100.00;99648.75;5075263;28;20211;-68
2022/01/21 06:31:20;;;;;;;8.77;4.40;;;;;;;0.43;100.00;99656.50;5075037;28;20211;-69
2022/01/21 06:33:47;;;;;;;9.53;3.73;;;;;;;0.49;100.00;99664.28;5073297;28;20270;-68
2022/01/21 06:36:14;;;;;;;8.00;3.77;;;;;;;0.44;100.00;99666.03;5074954;28;20214;-69
2022/01/21 06:38:40;;;;;;;8.07;4.10;;;;;;;0.44;100.00;99671.25;5074949;28;20222;-68
2022/01/21 06:41:07;;;;;;;10.53;4.83;;;;;;;0.41;100.00;99679.06;5074932;28;20234;-69
2022/01/21 06:43:33;;;;;;;9.30;3.63;;;;;;;0.49;100.00;99679.03;5074821;28;20608;-68
2022/01/21 06:46:00;;;;;;;9.80;4.30;;;;;;;0.45;100.00;99683.38;5074792;28;20214;-68
2022/01/21 06:48:26;;;;;;;9.37;4.00;;;;;;;0.51;100.00;99680.75;5074666;28;20215;-69
2022/01/21 06:50:54;;;;;;;5.97;3.77;;;;;;;0.47;100.00;99681.66;5074591;28;20210;-68
2022/01/21 06:53:20;;;;;;;10.53;4.07;;;;;;;0.43;100.00;99679.91;5074670;28;20226;-68
2022/01/21 06:55:47;;;;;;;8.10;4.03;;;;;;;0.45;100.00;99675.56;5074639;28;20221;-68
2022/01/21 06:58:14;;;;;;;10.37;4.30;;;;;;;0.38;100.00;99681.66;5074450;28;20218;-68
2022/01/21 07:00:40;;;;;;;10.07;4.33;;;;;;;0.36;100.00;99682.53;5072801;28;20214;-69
2022/01/21 07:03:07;;;;;;;7.10;4.17;;;;;;;0.37;100.00;99679.09;5074188;28;20681;-68
2022/01/21 07:05:33;;;;;;;6.50;4.07;;;;;;;0.42;100.00;99678.19;5074173;28;20222;-69
2022/01/21 07:08:01;;;;;;;11.00;4.27;;;;;;;0.49;100.00;99671.25;5074404;28;20219;-69
2022/01/21 07:10:30;;;;;;;10.60;4.27;;;;;;;0.39;100.00;99673.00;5074238;28;20215;-69
2022/01/21 07:12:57;;;;;;;10.37;4.20;;;;;;;0.42;100.00;99677.31;5074045;28;20339;-68
2022/01/21 07:15:23;;;;;;;13.77;5.20;;;;;;;0.45;100.00;99687.72;5074123;28;20258;-69
2022/01/21 07:17:52;;;;;;;9.53;4.30;;;;;;;0.43;100.00;99679.91;5074197;28;20215;-68
2022/01/21 07:20:19;;;;;;;8.47;4.93;;;;;;;0.37;100.00;99679.94;5073769;28;20294;-69
2022/01/21 07:22:46;;;;;;;13.20;4.97;;;;;;;0.43;100.00;99674.72;5073968;28;20211;-69
2022/01/21 07:25:14;;;;;;;9.30;5.23;;;;;;;0.51;100.00;99682.50;5069023;28;20236;-68
2022/01/21 07:27:42;;;;;;;8.03;5.00;;;;;;;0.54;100.00;99678.13;5073121;28;20218;-68
2022/01/21 07:30:11;;;;;;;7.50;4.97;;;;;;;0.57;100.00;99672.91;5073505;28;20220;-68
2022/01/21 07:32:38;;;;;;;12.23;4.70;;;;;;;0.60;100.00;99678.09;5073506;28;20226;-68
2022/01/21 07:35:07;;;;;;;9.63;5.03;;;;;;;0.63;100.00;99678.06;5073675;28;20246;-68
2022/01/21 07:37:33;;;;;;;8.57;5.70;;;;;;;0.63;100.00;99683.28;5073404;28;20298;-68
2022/01/21 07:40:00;;;;;;;11.73;4.90;;;;;;;0.73;100.00;99684.97;5073609;28;20220;-68
2022/01/21 07:42:29;;;;;;;7.20;4.50;;;;;;;0.60;100.00;99685.91;5073269;28;20215;-68
2022/01/21 07:44:56;;;;;;;8.10;4.80;;;;;;;0.65;100.00;99680.69;5073250;28;20739;-68
2022/01/21 07:47:22;;;;;;;9.37;4.90;;;;;;;0.74;100.00;99681.47;5073314;28;20684;-68
2022/01/21 07:49:49;;;;;;;12.47;5.03;;;;;;;0.75;100.00;99685.81;5073200;28;20673;-68
2022/01/21 07:52:15;;;;;;;7.93;4.70;;;;;;;0.83;100.00;99684.06;5071551;28;20216;-68
2022/01/21 07:54:42;;;;;;;10.73;5.00;;;;;;;0.84;100.00;99683.16;5073371;28;20231;-68
2022/01/21 07:57:10;;;;;;;9.43;5.27;;;;;;;0.84;100.00;99677.97;5073052;28;20223;-68
2022/01/21 07:59:38;;;;;;;10.53;5.07;;;;;;;0.83;100.00;99691.84;5073332;28;20243;-69
2022/01/21 08:02:05;;;;;;;11.20;5.13;;;;;;;0.83;100.00;99691.84;5067942;28;20212;-69
2022/01/21 08:04:32;;;;;;;10.03;5.03;;;;;;;0.89;100.00;99690.94;5073211;28;20214;-67
2022/01/21 08:06:58;;;;;;;10.10;4.93;;;;;;;0.99;100.00;99688.25;5073333;28;20222;-69
2022/01/21 08:09:25;;;;;;;10.90;5.40;;;;;;;1.10;100.00;99691.66;5073315;28;20562;-69
2022/01/21 08:11:51;;;;;;;10.23;5.63;;;;;;;1.17;100.00;99688.13;5072926;28;20246;-69
2022/01/21 08:14:18;;;;;;;7.97;4.87;;;;;;;1.15;100.00;99692.50;5072985;28;20235;-69
2022/01/21 08:16:46;;;;;;;8.33;4.60;;;;;;;1.26;100.00;99688.09;5072309;28;20218;-68
2022/01/21 08:19:13;;;;;;;8.93;4.73;;;;;;;1.25;100.00;99691.56;5072290;28;20215;-68
2022/01/21 08:21:40;;;;;;;9.97;4.80;;;;;;;1.31;100.00;99691.53;5072783;28;20280;-69
2022/01/21 08:24:07;;;;;;;8.53;5.03;;;;;;;1.37;100.00;99686.25;5072599;28;20222;-68
2022/01/21 08:26:35;;;;;;;8.37;4.70;;;;;;;1.37;100.00;99696.69;5072786;28;20246;-69
2022/01/21 08:29:02;;;;;;;7.70;4.60;;;;;;;1.44;100.00;99687.06;5072626;28;20221;-68
2022/01/21 08:31:29;;;;;;;10.37;4.80;;;;;;;1.48;100.00;99684.41;5072475;28;20215;-68
2022/01/21 08:33:57;;;;;;;10.37;5.10;;;;;;;1.44;99.83;99687.94;5069340;28;20211;-67
2022/01/21 08:36:25;;;;;;;12.60;4.97;;;;;;;1.47;98.88;99685.28;5071776;28;20218;-67
2022/01/21 08:38:52;;;;;;;11.80;5.27;;;;;;;1.47;98.72;99690.50;5071591;28;20243;-69
2022/01/21 08:41:19;;;;;;;10.47;5.53;;;;;;;1.45;98.26;99684.44;5070978;28;20218;-68
2022/01/21 08:43:46;;;;;;;10.43;5.03;;;;;;;1.48;98.85;99699.19;5054666;28;20208;-67
2022/01/21 08:46:12;;;;;;;11.23;5.40;;;;;;;1.49;98.96;99707.00;5072362;28;20221;-68
2022/01/21 08:48:39;;;;;;;10.83;5.47;;;;;;;1.48;98.24;99709.63;5070932;28;20211;-69
2022/01/21 08:51:11;;;;;;;11.30;5.20;;;;;;;1.44;97.66;99716.59;5072361;28;20219;-67
2022/01/21 08:53:38;;;;;;;9.57;5.40;;;;;;;1.56;98.28;99718.22;5074928;28;20272;-66
2022/01/21 08:56:08;;;;;;;8.57;5.20;;;;;;;1.65;97.85;99723.38;5074419;28;20242;-67
2022/01/21 08:58:35;;;;;;;8.03;4.93;;;;;;;1.62;97.00;99724.25;5074249;28;20669;-67
2022/01/21 09:01:02;;;;;;;10.43;5.60;;;;;;;1.69;96.96;99720.72;5075652;28;20223;-66
2022/01/21 09:03:28;;;;;;;11.37;5.40;;;;;;;1.69;96.47;99712.91;5074673;28;20211;-67
2022/01/21 09:05:55;;;;;;;7.93;4.70;;;;;;;1.75;96.94;99720.66;5073734;28;20218;-66
2022/01/21 09:08:25;;;;;;;14.03;5.77;;;;;;;1.77;96.49;99718.03;5072164;28;20230;-67
2022/01/21 09:10:52;;;;;;;10.73;4.97;;;;;;;1.90;96.30;99725.72;5071821;28;20219;-67
2022/01/21 09:13:19;;;;;;;10.10;4.80;;;;;;;1.98;95.83;99723.91;5072978;28;20211;-67
2022/01/21 09:15:45;;;;;;;9.83;5.20;;;;;;;2.01;95.80;99710.84;5072716;28;20261;-68
2022/01/21 09:18:17;;;;;;;7.60;5.07;;;;;;;2.05;94.26;99712.53;5072946;28;20216;-67
2022/01/21 09:20:44;;;;;;;9.67;5.23;;;;;;;2.01;94.72;99704.75;5074603;28;20211;-67
2022/01/21 09:23:10;;;;;;;10.33;5.83;;;;;;;1.97;94.90;99706.50;5073018;28;20219;-67
2022/01/21 09:25:38;;;;;;;9.67;5.27;;;;;;;1.89;95.12;99708.34;5072570;28;20243;-68
2022/01/21 09:28:05;;;;;;;11.47;5.17;;;;;;;2.04;95.42;99718.63;5072969;28;20242;-68
2022/01/21 09:30:32;;;;;;;8.83;5.43;;;;;;;2.09;94.48;99719.44;5074214;28;20211;-68
2022/01/21 09:33:00;;;;;;;7.67;5.30;;;;;;;2.08;93.15;99730.75;5073104;28;20223;-67
2022/01/21 09:35:27;;;;;;;9.70;5.10;;;;;;;2.05;93.02;99736.00;5070569;28;20712;-66
2022/01/21 09:37:54;;;;;;;9.33;5.80;;;;;;;1.93;92.01;99736.13;5069412;28;20225;-67
2022/01/21 09:40:29;;;;;;;7.90;5.07;;;;;;;2.03;92.89;99727.31;5072720;28;20225;-67
2022/01/21 09:42:58;;;;;;;8.60;4.73;;;;;;;2.08;93.95;99725.53;5071692;28;20207;-67
2022/01/21 09:45:25;;;;;;;10.07;5.57;;;;;;;2.16;93.72;99723.72;5063107;28;20663;-67
2022/01/21 09:47:54;;;;;;;8.93;5.20;;;;;;;2.24;93.13;99721.00;5063103;28;20219;-67
2022/01/21 09:50:22;;;;;;;8.97;4.93;;;;;;;2.29;92.20;99727.03;5072124;28;20230;-67
2022/01/21 09:52:51;;;;;;;9.73;4.67;;;;;;;2.33;91.94;99740.03;5072839;28;20219;-67
2022/01/21 09:55:20;;;;;;;10.40;4.97;;;;;;;2.48;91.07;99742.47;5073214;28;20277;-67
2022/01/21 09:57:48;;;;;;;9.10;5.53;;;;;;;2.61;90.80;99757.13;5073427;28;20224;-66
2022/01/21 10:00:17;;;;;;;10.90;5.30;;;;;;;2.72;90.75;99759.59;5070241;28;20211;-67
2022/01/21 10:02:45;;;;;;;10.43;5.40;;;;;;;2.84;89.25;99767.25;5061322;28;20238;-67
2022/01/21 10:05:12;;;;;;;11.73;5.40;;;;;;;2.78;87.65;99762.13;5072239;28;20219;-67
2022/01/21 10:07:41;;;;;;;10.63;5.13;;;;;;;2.75;87.66;99767.41;5072350;28;20203;-67
2022/01/21 10:10:08;;;;;;;10.17;4.67;;;;;;;2.59;86.63;99761.50;5073169;28;20223;-67
2022/01/21 10:12:35;;;;;;;9.90;5.40;;;;;;;2.56;87.69;99771.97;5073335;28;20207;-67
2022/01/21 10:15:02;;;;;;;11.27;5.30;;;;;;;2.59;87.59;99769.31;5071885;28;20262;-67
2022/01/21 10:17:30;;;;;;;12.17;4.93;;;;;;;2.49;87.74;99765.09;5072969;28;20254;-68
2022/01/21 10:20:13;;;;;;;14.07;4.87;;;;;;;2.50;88.85;99771.19;5072920;28;20226;-67
2022/01/21 10:22:39;;;;;;;14.50;4.73;;;;;;;2.57;88.59;99778.06;5072132;28;20736;-67
2022/01/21 10:25:12;;;;;;;9.77;4.70;;;;;;;2.64;87.61;99772.72;5072852;28;20246;-66
2022/01/21 10:27:39;;;;;;;8.90;5.37;;;;;;;2.56;87.72;99766.75;5072967;28;20223;-66
2022/01/21 10:30:19;;;;;;;7.10;4.40;;;;;;;2.40;87.35;99766.94;5072117;28;20216;-67
2022/01/21 10:32:47;;;;;;;11.00;4.80;;;;;;;2.35;89.24;99772.22;5073737;28;20221;-66
2022/01/21 10:35:25;;;;;;;11.07;4.70;;;;;;;2.36;89.42;99768.72;5073473;28;20250;-66
2022/01/21 10:37:55;;;;;;;13.37;5.03;;;;;;;2.44;89.03;99769.50;5073236;28;20215;-66
2022/01/21 10:40:22;;;;;;;12.57;5.20;;;;;;;2.36;88.35;99760.88;5073532;28;20211;-66
2022/01/21 10:42:50;;;;;;;10.73;4.93;;;;;;;2.39;89.19;99750.41;5073470;28;20211;-66
2022/01/21 10:45:17;;;;;;;9.80;5.27;;;;;;;2.50;88.79;99750.31;5073526;28;20229;-65
2022/01/21 10:47:51;;;;;;;9.27;4.47;;;;;;;2.54;87.70;99757.19;5073113;28;20211;-65
2022/01/21 10:50:21;;;;;;;9.07;4.57;;;;;;;2.76;87.99;99754.31;5073286;28;20252;-65
2022/01/21 10:52:51;;;;;;;7.63;4.13;;;;;;;2.87;86.22;99757.66;5072932;28;20707;-66
2022/01/21 10:55:30;;;;;;;12.63;5.20;;;;;;;3.03;86.11;99751.34;5072780;28;20724;-66
2022/01/21 10:58:07;;;;;;;6.20;4.37;;;;;;;2.99;85.55;99747.03;5060675;28;20671;-66
2022/01/21 11:00:34;;;;;;;6.67;4.00;;;;;;;3.04;84.76;99742.63;5062576;28;20220;-65
2022/01/21 11:03:11;;;;;;;8.57;4.23;;;;;;;2.95;85.14;99740.13;5071773;28;20219;-66
2022/01/21 11:05:41;;;;;;;8.80;4.80;;;;;;;2.88;85.24;99743.69;5061016;28;20215;-65
2022/01/21 11:08:10;;;;;;;12.73;4.80;;;;;;;2.85;85.60;99735.91;5073116;28;20219;-66
2022/01/21 11:10:39;;;;;;;6.73;4.23;;;;;;;2.77;85.46;99732.56;5072901;28;20220;-66
2022/01/21 11:13:27;;;;;;;12.10;4.77;;;;;;;2.89;86.60;99727.13;5072820;28;20218;-65
2022/01/21 11:15:56;;;;;;;9.13;4.17;;;;;;;2.93;85.30;99728.84;5072726;28;20239;-66
2022/01/21 11:18:25;;;;;;;8.70;3.93;;;;;;;3.00;84.71;99732.25;5072598;28;20220;-66
2022/01/21 11:20:57;;;;;;;8.27;4.30;;;;;;;2.94;84.32;99727.94;5072626;28;20220;-66
2022/01/21 11:23:27;;;;;;;8.30;4.43;;;;;;;2.94;84.22;99727.94;5059342;28;20318;-67
2022/01/21 11:25:56;;;;;;;10.10;4.40;;;;;;;2.99;84.61;99736.59;5072260;28;20239;-66
2022/01/21 11:28:25;;;;;;;5.87;3.93;;;;;;;2.93;83.51;99731.44;5072204;28;20215;-67
2022/01/21 11:30:53;;;;;;;9.60;4.87;;;;;;;2.90;84.38;99728.91;5072498;28;20621;-66
2022/01/21 11:33:20;;;;;;;10.20;3.90;;;;;;;2.99;85.40;99726.16;5072184;28;20649;-66
2022/01/21 11:35:49;;;;;;;8.37;3.93;;;;;;;3.18;83.84;99721.53;5072429;28;20238;-66
2022/01/21 11:38:17;;;;;;;9.87;4.13;;;;;;;3.26;83.54;99712.69;5072269;28;20587;-67
2022/01/21 11:40:45;;;;;;;10.37;4.07;;;;;;;3.20;83.70;99715.41;5071966;28;20231;-66
2022/01/21 11:43:12;;;;;;;7.03;3.83;;;;;;;3.20;83.11;99718.00;5072357;28;20218;-66
2022/01/21 11:46:05;;;;;;;8.27;3.63;;;;;;;3.23;83.73;99725.78;5071939;28;20219;-66
2022/01/21 11:48:53;;;;;;;6.73;3.80;;;;;;;3.27;84.63;99722.25;5070048;28;20243;-66
2022/01/21 11:51:27;;;;;;;6.67;3.10;;;;;;;3.18;82.12;99721.53;5070231;28;20207;-66
2022/01/21 11:53:56;;;;;;;10.47;3.90;;;;;;;3.05;82.23;99720.84;5072159;28;20219;-67
2022/01/21 11:56:32;;;;;;;8.23;3.73;;;;;;;3.11;84.38;99723.34;5071917;28;20334;-67
2022/01/21 11:59:07;;;;;;;8.10;3.57;;;;;;;3.05;83.68;99714.78;5069105;28;20677;-67
2022/01/21 12:01:36;;;;;;;14.47;4.23;;;;;;;3.04;83.63;99723.47;5059725;28;20626;-67
2022/01/21 12:04:04;;;;;;;8.70;3.77;;;;;;;3.02;84.24;99718.28;5063036;28;20294;-67
2022/01/21 12:06:37;;;;;;;6.40;3.20;;;;;;;3.07;84.68;99713.81;5063425;28;20223;-67
2022/01/21 12:09:05;;;;;;;6.43;3.87;;;;;;;3.07;85.14;99711.22;5060012;28;20226;-67
2022/01/21 12:11:37;;;;;;;7.97;3.53;;;;;;;3.10;84.05;99702.47;5065689;28;20211;-67
2022/01/21 12:14:26;;;;;;;7.60;4.33;;;;;;;3.25;84.50;99703.09;5061728;28;20222;-67
2022/01/21 12:16:57;;;;;;;9.70;3.47;;;;;;;3.40;84.76;99684.59;5058334;28;20236;-67